sensor_id;sensor_type;location;lat;lon;timestamp;P1;durP1;ratioP1;P2;durP2;ratioP2
8887;SDS011;4480;52.370;9.748;2023-03-14T00:00:02;1.60;;;1.50;;
8887;SDS011;4480;52.370;9.748;2023-03-14T00:02:32;1.90;;;1.33;;
8887;SDS011;4480;52.370;9.748;2023-03-14T00:05:01;3.83;;;1.83;;
8887;SDS011;4480;52.370;9.748;2023-03-14T00:07:31;1.93;;;1.43;;
8887;SDS011;4480;52.370;9.748;2023-03-14T00:10:00;3.30;;;1.50;;
8887;SDS011;4480;52.370;9.748;2023-03-14T00:12:29;3.53;;;1.50;;
8887;SDS011;4480;52.370;9.748;2023-03-14T00:14:56;3.17;;;1.60;;
8887;SDS011;4480;52.370;9.748;2023-03-14T00:17:24;2.70;;;1.60;;
8887;SDS011;4480;52.370;9.748;2023-03-14T00:19:50;3.20;;;1.60;;
8887;SDS011;4480;52.370;9.748;2023-03-14T00:22:20;3.93;;;1.93;;
8887;SDS011;4480;52.370;9.748;2023-03-14T00:24:47;3.97;;;1.87;;
8887;SDS011;4480;52.370;9.748;2023-03-14T00:27:14;2.33;;;1.70;;
8887;SDS011;4480;52.370;9.748;2023-03-14T00:29:42;6.27;;;1.80;;
8887;SDS011;4480;52.370;9.748;2023-03-14T00:32:09;3.03;;;1.77;;
8887;SDS011;4480;52.370;9.748;2023-03-14T00:34:36;4.13;;;1.83;;
8887;SDS011;4480;52.370;9.748;2023-03-14T00:37:03;2.10;;;1.77;;
8887;SDS011;4480;52.370;9.748;2023-03-14T00:39:31;5.10;;;1.70;;
8887;SDS011;4480;52.370;9.748;2023-03-14T00:41:58;2.37;;;1.30;;
8887;SDS011;4480;52.370;9.748;2023-03-14T00:44:25;2.80;;;1.67;;
8887;SDS011;4480;52.370;9.748;2023-03-14T00:46:51;4.90;;;1.97;;
8887;SDS011;4480;52.370;9.748;2023-03-14T00:49:18;4.23;;;1.77;;
8887;SDS011;4480;52.370;9.748;2023-03-14T00:51:45;3.17;;;1.37;;
8887;SDS011;4480;52.370;9.748;2023-03-14T00:54:12;5.30;;;1.80;;
8887;SDS011;4480;52.370;9.748;2023-03-14T00:56:40;3.90;;;1.43;;
8887;SDS011;4480;52.370;9.748;2023-03-14T00:59:07;2.43;;;1.13;;
8887;SDS011;4480;52.370;9.748;2023-03-14T01:01:34;2.80;;;1.37;;
8887;SDS011;4480;52.370;9.748;2023-03-14T01:04:01;7.20;;;1.77;;
8887;SDS011;4480;52.370;9.748;2023-03-14T01:06:28;4.00;;;1.60;;
8887;SDS011;4480;52.370;9.748;2023-03-14T01:08:56;2.47;;;1.20;;
8887;SDS011;4480;52.370;9.748;2023-03-14T01:11:24;1.20;;;1.10;;
8887;SDS011;4480;52.370;9.748;2023-03-14T01:13:54;4.73;;;1.53;;
8887;SDS011;4480;52.370;9.748;2023-03-14T01:16:21;3.83;;;2.27;;
8887;SDS011;4480;52.370;9.748;2023-03-14T01:18:49;3.53;;;1.30;;
8887;SDS011;4480;52.370;9.748;2023-03-14T01:21:17;2.60;;;1.30;;
8887;SDS011;4480;52.370;9.748;2023-03-14T01:23:45;3.43;;;2.00;;
8887;SDS011;4480;52.370;9.748;2023-03-14T01:26:14;3.40;;;1.47;;
8887;SDS011;4480;52.370;9.748;2023-03-14T01:28:44;3.50;;;1.43;;
8887;SDS011;4480;52.370;9.748;2023-03-14T01:31:13;2.50;;;1.23;;
8887;SDS011;4480;52.370;9.748;2023-03-14T01:33:40;3.00;;;1.60;;
8887;SDS011;4480;52.370;9.748;2023-03-14T01:36:07;1.80;;;1.33;;
8887;SDS011;4480;52.370;9.748;2023-03-14T01:38:36;5.13;;;1.67;;
8887;SDS011;4480;52.370;9.748;2023-03-14T01:41:05;4.53;;;1.87;;
8887;SDS011;4480;52.370;9.748;2023-03-14T01:43:33;3.07;;;1.20;;
8887;SDS011;4480;52.370;9.748;2023-03-14T01:46:16;2.60;;;1.60;;
8887;SDS011;4480;52.370;9.748;2023-03-14T01:48:55;1.90;;;1.40;;
8887;SDS011;4480;52.370;9.748;2023-03-14T01:51:29;2.00;;;1.67;;
8887;SDS011;4480;52.370;9.748;2023-03-14T01:54:02;2.30;;;1.67;;
8887;SDS011;4480;52.370;9.748;2023-03-14T01:56:34;4.97;;;1.40;;
8887;SDS011;4480;52.370;9.748;2023-03-14T01:59:02;2.03;;;1.47;;
8887;SDS011;4480;52.370;9.748;2023-03-14T02:01:33;4.20;;;1.50;;
8887;SDS011;4480;52.370;9.748;2023-03-14T02:04:02;2.20;;;1.50;;
8887;SDS011;4480;52.370;9.748;2023-03-14T02:06:32;1.50;;;1.20;;
8887;SDS011;4480;52.370;9.748;2023-03-14T02:09:04;3.93;;;1.40;;
8887;SDS011;4480;52.370;9.748;2023-03-14T02:11:30;1.77;;;1.27;;
8887;SDS011;4480;52.370;9.748;2023-03-14T02:13:57;1.77;;;1.17;;
8887;SDS011;4480;52.370;9.748;2023-03-14T02:16:25;2.77;;;1.70;;
8887;SDS011;4480;52.370;9.748;2023-03-14T02:18:53;3.40;;;1.77;;
8887;SDS011;4480;52.370;9.748;2023-03-14T02:21:22;3.00;;;1.50;;
8887;SDS011;4480;52.370;9.748;2023-03-14T02:23:58;4.27;;;1.83;;
8887;SDS011;4480;52.370;9.748;2023-03-14T02:26:36;3.57;;;1.13;;
8887;SDS011;4480;52.370;9.748;2023-03-14T02:29:07;3.00;;;1.20;;
8887;SDS011;4480;52.370;9.748;2023-03-14T02:31:35;3.83;;;1.33;;
8887;SDS011;4480;52.370;9.748;2023-03-14T02:34:02;3.27;;;1.50;;
8887;SDS011;4480;52.370;9.748;2023-03-14T02:36:29;2.43;;;1.50;;
8887;SDS011;4480;52.370;9.748;2023-03-14T02:38:58;1.33;;;1.07;;
8887;SDS011;4480;52.370;9.748;2023-03-14T02:41:32;4.03;;;1.50;;
8887;SDS011;4480;52.370;9.748;2023-03-14T02:43:59;3.20;;;1.73;;
8887;SDS011;4480;52.370;9.748;2023-03-14T02:46:28;3.47;;;1.30;;
8887;SDS011;4480;52.370;9.748;2023-03-14T02:48:55;4.13;;;1.80;;
8887;SDS011;4480;52.370;9.748;2023-03-14T02:51:24;4.80;;;1.90;;
8887;SDS011;4480;52.370;9.748;2023-03-14T02:53:53;2.60;;;1.23;;
8887;SDS011;4480;52.370;9.748;2023-03-14T02:56:20;4.50;;;1.47;;
8887;SDS011;4480;52.370;9.748;2023-03-14T02:58:47;2.57;;;1.53;;
8887;SDS011;4480;52.370;9.748;2023-03-14T03:01:14;2.83;;;1.03;;
8887;SDS011;4480;52.370;9.748;2023-03-14T03:03:42;4.50;;;1.50;;
8887;SDS011;4480;52.370;9.748;2023-03-14T03:06:08;7.03;;;1.30;;
8887;SDS011;4480;52.370;9.748;2023-03-14T03:08:35;2.57;;;1.43;;
8887;SDS011;4480;52.370;9.748;2023-03-14T03:11:03;1.97;;;1.37;;
8887;SDS011;4480;52.370;9.748;2023-03-14T03:13:30;2.73;;;1.20;;
8887;SDS011;4480;52.370;9.748;2023-03-14T03:15:57;3.10;;;1.60;;
8887;SDS011;4480;52.370;9.748;2023-03-14T03:18:24;2.77;;;1.50;;
8887;SDS011;4480;52.370;9.748;2023-03-14T03:20:52;1.97;;;1.23;;
8887;SDS011;4480;52.370;9.748;2023-03-14T03:23:19;2.63;;;1.30;;
8887;SDS011;4480;52.370;9.748;2023-03-14T03:25:49;5.30;;;1.53;;
8887;SDS011;4480;52.370;9.748;2023-03-14T03:28:16;4.60;;;1.67;;
8887;SDS011;4480;52.370;9.748;2023-03-14T03:30:43;4.23;;;2.10;;
8887;SDS011;4480;52.370;9.748;2023-03-14T03:33:10;1.50;;;1.10;;
8887;SDS011;4480;52.370;9.748;2023-03-14T03:35:41;4.10;;;1.13;;
8887;SDS011;4480;52.370;9.748;2023-03-14T03:38:11;2.10;;;1.20;;
8887;SDS011;4480;52.370;9.748;2023-03-14T03:40:38;2.30;;;1.10;;
8887;SDS011;4480;52.370;9.748;2023-03-14T03:43:05;1.60;;;1.00;;
8887;SDS011;4480;52.370;9.748;2023-03-14T03:45:32;2.00;;;1.00;;
8887;SDS011;4480;52.370;9.748;2023-03-14T03:47:59;2.50;;;1.20;;
8887;SDS011;4480;52.370;9.748;2023-03-14T03:50:26;3.30;;;1.33;;
8887;SDS011;4480;52.370;9.748;2023-03-14T03:52:53;2.50;;;1.53;;
8887;SDS011;4480;52.370;9.748;2023-03-14T03:55:21;2.03;;;1.20;;
8887;SDS011;4480;52.370;9.748;2023-03-14T03:57:47;3.27;;;1.47;;
8887;SDS011;4480;52.370;9.748;2023-03-14T04:00:14;1.90;;;1.30;;
8887;SDS011;4480;52.370;9.748;2023-03-14T04:02:41;2.30;;;1.50;;
8887;SDS011;4480;52.370;9.748;2023-03-14T04:05:09;7.22;;;1.70;;
8887;SDS011;4480;52.370;9.748;2023-03-14T04:07:36;3.85;;;1.55;;
8887;SDS011;4480;52.370;9.748;2023-03-14T04:11:22;5.43;;;1.17;;
8887;SDS011;4480;52.370;9.748;2023-03-14T04:13:49;3.92;;;1.50;;
8887;SDS011;4480;52.370;9.748;2023-03-14T04:16:17;3.90;;;1.30;;
8887;SDS011;4480;52.370;9.748;2023-03-14T04:18:45;1.25;;;0.90;;
8887;SDS011;4480;52.370;9.748;2023-03-14T04:21:11;1.85;;;1.13;;
8887;SDS011;4480;52.370;9.748;2023-03-14T04:23:38;2.25;;;1.17;;
8887;SDS011;4480;52.370;9.748;2023-03-14T04:26:05;1.88;;;1.30;;
8887;SDS011;4480;52.370;9.748;2023-03-14T04:28:33;1.00;;;0.85;;
8887;SDS011;4480;52.370;9.748;2023-03-14T04:31:06;2.63;;;1.10;;
8887;SDS011;4480;52.370;9.748;2023-03-14T04:33:33;1.52;;;0.90;;
8887;SDS011;4480;52.370;9.748;2023-03-14T04:36:01;2.75;;;1.20;;
8887;SDS011;4480;52.370;9.748;2023-03-14T04:38:28;2.03;;;1.08;;
8887;SDS011;4480;52.370;9.748;2023-03-14T04:40:54;2.10;;;1.10;;
8887;SDS011;4480;52.370;9.748;2023-03-14T04:43:21;0.68;;;0.60;;
8887;SDS011;4480;52.370;9.748;2023-03-14T04:45:49;1.55;;;0.90;;
8887;SDS011;4480;52.370;9.748;2023-03-14T04:48:16;2.13;;;1.00;;
8887;SDS011;4480;52.370;9.748;2023-03-14T04:50:43;3.15;;;1.08;;
8887;SDS011;4480;52.370;9.748;2023-03-14T04:53:11;1.38;;;0.90;;
8887;SDS011;4480;52.370;9.748;2023-03-14T04:55:38;4.05;;;0.90;;
8887;SDS011;4480;52.370;9.748;2023-03-14T04:58:05;3.22;;;1.17;;
8887;SDS011;4480;52.370;9.748;2023-03-14T05:00:31;4.10;;;1.10;;
8887;SDS011;4480;52.370;9.748;2023-03-14T05:03:00;1.90;;;0.88;;
8887;SDS011;4480;52.370;9.748;2023-03-14T05:05:26;1.10;;;0.95;;
8887;SDS011;4480;52.370;9.748;2023-03-14T05:07:53;3.55;;;0.98;;
8887;SDS011;4480;52.370;9.748;2023-03-14T05:10:20;1.55;;;1.00;;
8887;SDS011;4480;52.370;9.748;2023-03-14T05:12:47;1.65;;;0.73;;
8887;SDS011;4480;52.370;9.748;2023-03-14T05:15:14;1.13;;;0.80;;
8887;SDS011;4480;52.370;9.748;2023-03-14T05:17:40;2.95;;;0.75;;
8887;SDS011;4480;52.370;9.748;2023-03-14T05:20:09;1.10;;;0.85;;
8887;SDS011;4480;52.370;9.748;2023-03-14T05:22:38;1.65;;;0.80;;
8887;SDS011;4480;52.370;9.748;2023-03-14T05:25:05;1.25;;;1.05;;
8887;SDS011;4480;52.370;9.748;2023-03-14T05:27:33;6.63;;;1.10;;
8887;SDS011;4480;52.370;9.748;2023-03-14T05:30:00;3.25;;;1.40;;
8887;SDS011;4480;52.370;9.748;2023-03-14T05:32:27;5.00;;;1.15;;
8887;SDS011;4480;52.370;9.748;2023-03-14T05:34:54;3.80;;;1.17;;
8887;SDS011;4480;52.370;9.748;2023-03-14T05:37:25;1.92;;;1.20;;
8887;SDS011;4480;52.370;9.748;2023-03-14T05:39:52;2.00;;;1.05;;
8887;SDS011;4480;52.370;9.748;2023-03-14T05:42:18;6.72;;;1.40;;
8887;SDS011;4480;52.370;9.748;2023-03-14T05:44:46;4.82;;;1.15;;
8887;SDS011;4480;52.370;9.748;2023-03-14T05:47:12;5.55;;;1.40;;
8887;SDS011;4480;52.370;9.748;2023-03-14T05:49:39;3.63;;;1.20;;
8887;SDS011;4480;52.370;9.748;2023-03-14T05:52:06;5.18;;;1.35;;
8887;SDS011;4480;52.370;9.748;2023-03-14T05:54:34;3.40;;;1.23;;
8887;SDS011;4480;52.370;9.748;2023-03-14T05:57:01;4.18;;;1.67;;
8887;SDS011;4480;52.370;9.748;2023-03-14T05:59:27;4.32;;;1.40;;
8887;SDS011;4480;52.370;9.748;2023-03-14T06:01:54;2.22;;;1.70;;
8887;SDS011;4480;52.370;9.748;2023-03-14T06:04:21;6.93;;;1.50;;
8887;SDS011;4480;52.370;9.748;2023-03-14T06:06:48;3.30;;;1.30;;
8887;SDS011;4480;52.370;9.748;2023-03-14T06:09:15;7.57;;;1.60;;
8887;SDS011;4480;52.370;9.748;2023-03-14T06:11:45;5.78;;;1.92;;
8887;SDS011;4480;52.370;9.748;2023-03-14T06:14:12;2.97;;;1.17;;
8887;SDS011;4480;52.370;9.748;2023-03-14T06:16:39;2.72;;;1.25;;
8887;SDS011;4480;52.370;9.748;2023-03-14T06:19:06;6.05;;;2.00;;
8887;SDS011;4480;52.370;9.748;2023-03-14T06:21:32;3.45;;;1.75;;
8887;SDS011;4480;52.370;9.748;2023-03-14T06:23:59;1.90;;;1.20;;
8887;SDS011;4480;52.370;9.748;2023-03-14T06:26:26;3.53;;;1.20;;
8887;SDS011;4480;52.370;9.748;2023-03-14T06:28:54;3.65;;;1.65;;
8887;SDS011;4480;52.370;9.748;2023-03-14T06:31:21;5.15;;;1.58;;
8887;SDS011;4480;52.370;9.748;2023-03-14T06:33:48;2.90;;;1.60;;
8887;SDS011;4480;52.370;9.748;2023-03-14T06:36:15;4.70;;;1.23;;
8887;SDS011;4480;52.370;9.748;2023-03-14T06:38:42;2.42;;;1.13;;
8887;SDS011;4480;52.370;9.748;2023-03-14T06:41:08;2.60;;;1.23;;
8887;SDS011;4480;52.370;9.748;2023-03-14T06:43:35;2.30;;;1.20;;
8887;SDS011;4480;52.370;9.748;2023-03-14T06:46:03;3.80;;;1.50;;
8887;SDS011;4480;52.370;9.748;2023-03-14T06:48:30;3.63;;;1.45;;
8887;SDS011;4480;52.370;9.748;2023-03-14T06:50:57;3.05;;;1.17;;
8887;SDS011;4480;52.370;9.748;2023-03-14T06:53:24;6.28;;;1.45;;
8887;SDS011;4480;52.370;9.748;2023-03-14T06:55:51;5.38;;;1.10;;
8887;SDS011;4480;52.370;9.748;2023-03-14T06:58:18;2.10;;;0.97;;
8887;SDS011;4480;52.370;9.748;2023-03-14T07:00:45;2.10;;;1.00;;
8887;SDS011;4480;52.370;9.748;2023-03-14T07:03:14;4.50;;;1.20;;
8887;SDS011;4480;52.370;9.748;2023-03-14T07:05:41;3.63;;;1.17;;
8887;SDS011;4480;52.370;9.748;2023-03-14T07:08:08;1.73;;;0.93;;
8887;SDS011;4480;52.370;9.748;2023-03-14T07:10:35;3.13;;;1.00;;
8887;SDS011;4480;52.370;9.748;2023-03-14T07:13:02;1.40;;;0.67;;
8887;SDS011;4480;52.370;9.748;2023-03-14T07:15:29;3.50;;;1.00;;
8887;SDS011;4480;52.370;9.748;2023-03-14T07:17:56;1.07;;;0.70;;
8887;SDS011;4480;52.370;9.748;2023-03-14T07:20:24;1.60;;;0.80;;
8887;SDS011;4480;52.370;9.748;2023-03-14T07:22:50;2.07;;;1.00;;
8887;SDS011;4480;52.370;9.748;2023-03-14T07:25:17;1.67;;;0.65;;
8887;SDS011;4480;52.370;9.748;2023-03-14T07:27:44;1.07;;;0.60;;
8887;SDS011;4480;52.370;9.748;2023-03-14T07:30:12;5.70;;;0.80;;
8887;SDS011;4480;52.370;9.748;2023-03-14T07:32:39;2.53;;;0.53;;
8887;SDS011;4480;52.370;9.748;2023-03-14T07:35:06;2.63;;;0.87;;
8887;SDS011;4480;52.370;9.748;2023-03-14T07:37:35;1.23;;;0.80;;
8887;SDS011;4480;52.370;9.748;2023-03-14T07:40:02;1.30;;;0.73;;
8887;SDS011;4480;52.370;9.748;2023-03-14T07:42:32;2.53;;;1.23;;
8887;SDS011;4480;52.370;9.748;2023-03-14T07:44:58;1.20;;;0.70;;
8887;SDS011;4480;52.370;9.748;2023-03-14T07:47:25;1.10;;;0.80;;
8887;SDS011;4480;52.370;9.748;2023-03-14T07:49:52;1.10;;;0.50;;
8887;SDS011;4480;52.370;9.748;2023-03-14T07:52:19;2.30;;;0.70;;
8887;SDS011;4480;52.370;9.748;2023-03-14T07:54:47;1.73;;;0.60;;
8887;SDS011;4480;52.370;9.748;2023-03-14T07:57:13;1.00;;;0.80;;
8887;SDS011;4480;52.370;9.748;2023-03-14T07:59:41;1.70;;;0.80;;
8887;SDS011;4480;52.370;9.748;2023-03-14T08:02:08;4.00;;;0.90;;
8887;SDS011;4480;52.370;9.748;2023-03-14T08:04:38;1.77;;;1.07;;
8887;SDS011;4480;52.370;9.748;2023-03-14T08:07:05;1.23;;;0.60;;
8887;SDS011;4480;52.370;9.748;2023-03-14T08:09:32;3.37;;;1.17;;
8887;SDS011;4480;52.370;9.748;2023-03-14T08:12:00;1.23;;;0.63;;
8887;SDS011;4480;52.370;9.748;2023-03-14T08:14:27;0.93;;;0.67;;
8887;SDS011;4480;52.370;9.748;2023-03-14T08:16:55;1.73;;;0.67;;
8887;SDS011;4480;52.370;9.748;2023-03-14T08:19:22;0.93;;;0.60;;
8887;SDS011;4480;52.370;9.748;2023-03-14T08:21:49;1.10;;;0.80;;
8887;SDS011;4480;52.370;9.748;2023-03-14T08:24:16;0.97;;;0.70;;
8887;SDS011;4480;52.370;9.748;2023-03-14T08:26:43;0.87;;;0.47;;
8887;SDS011;4480;52.370;9.748;2023-03-14T08:29:11;0.70;;;0.67;;
8887;SDS011;4480;52.370;9.748;2023-03-14T08:31:38;1.30;;;0.70;;
8887;SDS011;4480;52.370;9.748;2023-03-14T08:34:04;0.70;;;0.70;;
8887;SDS011;4480;52.370;9.748;2023-03-14T08:36:32;1.30;;;0.80;;
8887;SDS011;4480;52.370;9.748;2023-03-14T08:38:59;0.70;;;0.50;;
8887;SDS011;4480;52.370;9.748;2023-03-14T08:41:26;3.20;;;1.70;;
8887;SDS011;4480;52.370;9.748;2023-03-14T08:43:53;2.30;;;1.07;;
8887;SDS011;4480;52.370;9.748;2023-03-14T08:46:21;1.00;;;0.50;;
8887;SDS011;4480;52.370;9.748;2023-03-14T08:48:48;1.00;;;0.53;;
8887;SDS011;4480;52.370;9.748;2023-03-14T08:51:15;1.67;;;1.10;;
8887;SDS011;4480;52.370;9.748;2023-03-14T08:53:42;1.23;;;0.60;;
8887;SDS011;4480;52.370;9.748;2023-03-14T08:56:09;1.40;;;0.77;;
8887;SDS011;4480;52.370;9.748;2023-03-14T08:58:36;5.90;;;1.00;;
8887;SDS011;4480;52.370;9.748;2023-03-14T09:01:03;0.70;;;0.63;;
8887;SDS011;4480;52.370;9.748;2023-03-14T09:03:32;2.10;;;0.93;;
8887;SDS011;4480;52.370;9.748;2023-03-14T09:06:01;1.00;;;0.90;;
8887;SDS011;4480;52.370;9.748;2023-03-14T09:08:29;0.70;;;0.53;;
8887;SDS011;4480;52.370;9.748;2023-03-14T09:10:56;2.30;;;0.80;;
8887;SDS011;4480;52.370;9.748;2023-03-14T09:13:23;1.30;;;1.00;;
8887;SDS011;4480;52.370;9.748;2023-03-14T09:15:50;0.80;;;0.70;;
8887;SDS011;4480;52.370;9.748;2023-03-14T09:18:17;1.50;;;1.00;;
8887;SDS011;4480;52.370;9.748;2023-03-14T09:20:45;3.07;;;0.80;;
8887;SDS011;4480;52.370;9.748;2023-03-14T09:23:12;0.83;;;0.60;;
8887;SDS011;4480;52.370;9.748;2023-03-14T09:25:39;1.93;;;0.90;;
8887;SDS011;4480;52.370;9.748;2023-03-14T09:28:06;3.23;;;1.27;;
8887;SDS011;4480;52.370;9.748;2023-03-14T09:30:33;1.07;;;0.77;;
8887;SDS011;4480;52.370;9.748;2023-03-14T09:33:00;1.03;;;0.90;;
8887;SDS011;4480;52.370;9.748;2023-03-14T09:35:27;2.00;;;1.07;;
8887;SDS011;4480;52.370;9.748;2023-03-14T09:37:55;1.30;;;0.63;;
8887;SDS011;4480;52.370;9.748;2023-03-14T09:40:22;5.40;;;1.23;;
8887;SDS011;4480;52.370;9.748;2023-03-14T09:42:50;0.90;;;0.80;;
8887;SDS011;4480;52.370;9.748;2023-03-14T09:45:19;1.13;;;0.87;;
8887;SDS011;4480;52.370;9.748;2023-03-14T09:47:51;1.40;;;0.80;;
8887;SDS011;4480;52.370;9.748;2023-03-14T09:50:18;1.40;;;1.03;;
8887;SDS011;4480;52.370;9.748;2023-03-14T09:52:46;3.03;;;1.17;;
8887;SDS011;4480;52.370;9.748;2023-03-14T09:55:19;1.10;;;0.80;;
8887;SDS011;4480;52.370;9.748;2023-03-14T09:57:48;1.70;;;1.00;;
8887;SDS011;4480;52.370;9.748;2023-03-14T10:00:18;2.30;;;0.90;;
8887;SDS011;4480;52.370;9.748;2023-03-14T10:02:49;1.03;;;0.90;;
8887;SDS011;4480;52.370;9.748;2023-03-14T10:05:20;2.23;;;1.80;;
8887;SDS011;4480;52.370;9.748;2023-03-14T10:07:48;2.13;;;0.97;;
8887;SDS011;4480;52.370;9.748;2023-03-14T10:10:15;1.10;;;0.80;;
8887;SDS011;4480;52.370;9.748;2023-03-14T10:12:46;1.27;;;0.70;;
8887;SDS011;4480;52.370;9.748;2023-03-14T10:15:14;1.77;;;0.90;;
8887;SDS011;4480;52.370;9.748;2023-03-14T10:17:48;1.20;;;1.00;;
8887;SDS011;4480;52.370;9.748;2023-03-14T10:20:27;1.60;;;1.00;;
8887;SDS011;4480;52.370;9.748;2023-03-14T10:22:58;2.30;;;1.10;;
8887;SDS011;4480;52.370;9.748;2023-03-14T10:25:27;1.30;;;1.00;;
8887;SDS011;4480;52.370;9.748;2023-03-14T10:27:55;5.63;;;0.90;;
8887;SDS011;4480;52.370;9.748;2023-03-14T10:30:30;2.30;;;0.93;;
8887;SDS011;4480;52.370;9.748;2023-03-14T10:33:08;1.07;;;0.93;;
8887;SDS011;4480;52.370;9.748;2023-03-14T10:35:37;2.20;;;1.00;;
8887;SDS011;4480;52.370;9.748;2023-03-14T10:38:04;1.60;;;1.00;;
8887;SDS011;4480;52.370;9.748;2023-03-14T10:40:32;2.87;;;0.83;;
8887;SDS011;4480;52.370;9.748;2023-03-14T10:43:03;2.80;;;1.10;;
8887;SDS011;4480;52.370;9.748;2023-03-14T10:45:33;1.60;;;0.90;;
8887;SDS011;4480;52.370;9.748;2023-03-14T10:48:18;0.80;;;0.70;;
8887;SDS011;4480;52.370;9.748;2023-03-14T10:50:53;1.30;;;0.87;;
8887;SDS011;4480;52.370;9.748;2023-03-14T10:53:22;2.50;;;1.07;;
8887;SDS011;4480;52.370;9.748;2023-03-14T10:55:51;1.27;;;1.07;;
8887;SDS011;4480;52.370;9.748;2023-03-14T10:58:19;2.07;;;1.30;;
8887;SDS011;4480;52.370;9.748;2023-03-14T11:00:47;1.50;;;1.20;;
8887;SDS011;4480;52.370;9.748;2023-03-14T11:03:19;1.93;;;1.60;;
8887;SDS011;4480;52.370;9.748;2023-03-14T11:05:49;1.30;;;1.20;;
8887;SDS011;4480;52.370;9.748;2023-03-14T11:08:20;1.60;;;1.50;;
8887;SDS011;4480;52.370;9.748;2023-03-14T11:10:54;2.77;;;2.27;;
8887;SDS011;4480;52.370;9.748;2023-03-14T11:13:24;1.87;;;1.60;;
8887;SDS011;4480;52.370;9.748;2023-03-14T11:15:58;3.07;;;1.97;;
8887;SDS011;4480;52.370;9.748;2023-03-14T11:21:27;1.90;;;1.80;;
8887;SDS011;4480;52.370;9.748;2023-03-14T11:24:03;9.67;;;3.43;;
8887;SDS011;4480;52.370;9.748;2023-03-14T11:26:48;1.53;;;1.13;;
8887;SDS011;4480;52.370;9.748;2023-03-14T11:29:20;1.40;;;1.03;;
8887;SDS011;4480;52.370;9.748;2023-03-14T11:31:52;1.63;;;0.82;;
8887;SDS011;4480;52.370;9.748;2023-03-14T11:34:25;2.85;;;1.17;;
8887;SDS011;4480;52.370;9.748;2023-03-14T11:36:56;5.38;;;1.45;;
8887;SDS011;4480;52.370;9.748;2023-03-14T11:39:29;1.60;;;1.50;;
8887;SDS011;4480;52.370;9.748;2023-03-14T11:42:07;2.55;;;1.80;;
8887;SDS011;4480;52.370;9.748;2023-03-14T11:44:38;3.42;;;2.15;;
8887;SDS011;4480;52.370;9.748;2023-03-14T11:47:07;2.75;;;2.55;;
8887;SDS011;4480;52.370;9.748;2023-03-14T11:49:40;2.38;;;2.13;;
8887;SDS011;4480;52.370;9.748;2023-03-14T11:52:13;3.00;;;2.70;;
8887;SDS011;4480;52.370;9.748;2023-03-14T11:54:46;2.53;;;2.00;;
8887;SDS011;4480;52.370;9.748;2023-03-14T11:57:17;1.85;;;1.23;;
8887;SDS011;4480;52.370;9.748;2023-03-14T11:59:47;1.85;;;1.70;;
8887;SDS011;4480;52.370;9.748;2023-03-14T12:02:21;1.40;;;1.30;;
8887;SDS011;4480;52.370;9.748;2023-03-14T12:04:54;2.47;;;1.20;;
8887;SDS011;4480;52.370;9.748;2023-03-14T12:07:42;0.85;;;0.60;;
8887;SDS011;4480;52.370;9.748;2023-03-14T12:10:24;2.08;;;0.90;;
8887;SDS011;4480;52.370;9.748;2023-03-14T12:12:52;0.77;;;0.60;;
8887;SDS011;4480;52.370;9.748;2023-03-14T12:15:20;1.48;;;0.95;;
8887;SDS011;4480;52.370;9.748;2023-03-14T12:17:52;0.80;;;0.55;;
8887;SDS011;4480;52.370;9.748;2023-03-14T12:20:21;0.70;;;0.60;;
8887;SDS011;4480;52.370;9.748;2023-03-14T12:22:49;1.80;;;0.70;;
8887;SDS011;4480;52.370;9.748;2023-03-14T12:25:19;0.98;;;0.80;;
8887;SDS011;4480;52.370;9.748;2023-03-14T12:27:49;1.75;;;0.98;;
8887;SDS011;4480;52.370;9.748;2023-03-14T12:30:31;0.70;;;0.70;;
8887;SDS011;4480;52.370;9.748;2023-03-14T12:35:58;1.40;;;0.93;;
8887;SDS011;4480;52.370;9.748;2023-03-14T12:38:32;0.60;;;0.50;;
8887;SDS011;4480;52.370;9.748;2023-03-14T12:41:12;0.82;;;0.70;;
8887;SDS011;4480;52.370;9.748;2023-03-14T12:43:44;1.10;;;1.00;;
8887;SDS011;4480;52.370;9.748;2023-03-14T12:46:18;2.17;;;0.90;;
8887;SDS011;4480;52.370;9.748;2023-03-14T12:48:48;0.93;;;0.70;;
8887;SDS011;4480;52.370;9.748;2023-03-14T12:51:17;1.55;;;0.63;;
8887;SDS011;4480;52.370;9.748;2023-03-14T12:53:50;1.75;;;0.82;;
8887;SDS011;4480;52.370;9.748;2023-03-14T12:56:31;1.75;;;0.88;;
8887;SDS011;4480;52.370;9.748;2023-03-14T12:59:16;2.55;;;1.15;;
8887;SDS011;4480;52.370;9.748;2023-03-14T13:02:14;5.05;;;1.60;;
8887;SDS011;4480;52.370;9.748;2023-03-14T13:04:48;8.95;;;1.35;;
8887;SDS011;4480;52.370;9.748;2023-03-14T13:07:31;3.78;;;1.10;;
8887;SDS011;4480;52.370;9.748;2023-03-14T13:10:00;1.27;;;0.88;;
8887;SDS011;4480;52.370;9.748;2023-03-14T13:12:34;4.63;;;0.98;;
8887;SDS011;4480;52.370;9.748;2023-03-14T13:15:14;5.25;;;1.60;;
8887;SDS011;4480;52.370;9.748;2023-03-14T13:17:46;2.05;;;0.75;;
8887;SDS011;4480;52.370;9.748;2023-03-14T13:20:15;9.18;;;1.42;;
8887;SDS011;4480;52.370;9.748;2023-03-14T13:22:46;5.53;;;1.25;;
8887;SDS011;4480;52.370;9.748;2023-03-14T13:25:15;3.88;;;1.58;;
8887;SDS011;4480;52.370;9.748;2023-03-14T13:27:43;3.53;;;1.35;;
8887;SDS011;4480;52.370;9.748;2023-03-14T13:30:20;3.88;;;1.55;;
8887;SDS011;4480;52.370;9.748;2023-03-14T13:32:49;4.05;;;0.98;;
8887;SDS011;4480;52.370;9.748;2023-03-14T13:35:18;3.15;;;1.60;;
8887;SDS011;4480;52.370;9.748;2023-03-14T13:37:47;4.80;;;1.75;;
8887;SDS011;4480;52.370;9.748;2023-03-14T13:40:20;8.18;;;1.83;;
8887;SDS011;4480;52.370;9.748;2023-03-14T13:42:59;7.05;;;2.35;;
8887;SDS011;4480;52.370;9.748;2023-03-14T13:45:29;6.57;;;1.77;;
8887;SDS011;4480;52.370;9.748;2023-03-14T13:47:56;6.22;;;1.83;;
8887;SDS011;4480;52.370;9.748;2023-03-14T13:50:23;3.95;;;1.30;;
8887;SDS011;4480;52.370;9.748;2023-03-14T13:52:54;13.65;;;2.33;;
8887;SDS011;4480;52.370;9.748;2023-03-14T13:55:22;7.97;;;1.80;;
8887;SDS011;4480;52.370;9.748;2023-03-14T13:57:49;6.07;;;2.38;;
8887;SDS011;4480;52.370;9.748;2023-03-14T14:00:20;3.55;;;2.10;;
8887;SDS011;4480;52.370;9.748;2023-03-14T14:02:53;5.43;;;2.20;;
8887;SDS011;4480;52.370;9.748;2023-03-14T14:05:21;4.15;;;2.05;;
8887;SDS011;4480;52.370;9.748;2023-03-14T14:07:48;4.97;;;2.10;;
8887;SDS011;4480;52.370;9.748;2023-03-14T14:10:16;5.80;;;1.92;;
8887;SDS011;4480;52.370;9.748;2023-03-14T14:12:44;9.20;;;2.20;;
8887;SDS011;4480;52.370;9.748;2023-03-14T14:15:16;5.88;;;1.70;;
8887;SDS011;4480;52.370;9.748;2023-03-14T14:17:47;9.00;;;2.00;;
8887;SDS011;4480;52.370;9.748;2023-03-14T14:20:20;13.63;;;2.75;;
8887;SDS011;4480;52.370;9.748;2023-03-14T14:22:49;7.90;;;2.42;;
8887;SDS011;4480;52.370;9.748;2023-03-14T14:25:17;6.60;;;2.22;;
8887;SDS011;4480;52.370;9.748;2023-03-14T14:27:46;10.43;;;2.13;;
8887;SDS011;4480;52.370;9.748;2023-03-14T14:30:25;7.75;;;2.97;;
8887;SDS011;4480;52.370;9.748;2023-03-14T14:33:09;9.18;;;2.85;;
8887;SDS011;4480;52.370;9.748;2023-03-14T14:35:51;7.65;;;3.03;;
8887;SDS011;4480;52.370;9.748;2023-03-14T14:38:20;8.02;;;2.85;;
8887;SDS011;4480;52.370;9.748;2023-03-14T14:40:48;9.55;;;2.58;;
8887;SDS011;4480;52.370;9.748;2023-03-14T14:43:18;5.72;;;2.40;;
8887;SDS011;4480;52.370;9.748;2023-03-14T14:45:48;3.65;;;1.75;;
8887;SDS011;4480;52.370;9.748;2023-03-14T14:48:18;11.80;;;2.42;;
8887;SDS011;4480;52.370;9.748;2023-03-14T14:50:56;6.35;;;2.33;;
8887;SDS011;4480;52.370;9.748;2023-03-14T14:53:28;8.48;;;2.08;;
8887;SDS011;4480;52.370;9.748;2023-03-14T14:55:56;10.85;;;2.65;;
8887;SDS011;4480;52.370;9.748;2023-03-14T14:58:25;5.85;;;2.70;;
8887;SDS011;4480;52.370;9.748;2023-03-14T15:00:55;8.52;;;2.40;;
8887;SDS011;4480;52.370;9.748;2023-03-14T15:03:25;8.63;;;2.90;;
8887;SDS011;4480;52.370;9.748;2023-03-14T15:05:55;8.52;;;1.95;;
8887;SDS011;4480;52.370;9.748;2023-03-14T15:08:23;4.22;;;2.08;;
8887;SDS011;4480;52.370;9.748;2023-03-14T15:10:52;3.22;;;1.83;;
8887;SDS011;4480;52.370;9.748;2023-03-14T15:13:20;10.20;;;1.80;;
8887;SDS011;4480;52.370;9.748;2023-03-14T15:15:47;14.43;;;2.17;;
8887;SDS011;4480;52.370;9.748;2023-03-14T15:18:20;8.90;;;2.55;;
8887;SDS011;4480;52.370;9.748;2023-03-14T15:20:48;8.15;;;2.67;;
8887;SDS011;4480;52.370;9.748;2023-03-14T15:23:17;5.20;;;1.95;;
8887;SDS011;4480;52.370;9.748;2023-03-14T15:25:47;3.70;;;2.42;;
8887;SDS011;4480;52.370;9.748;2023-03-14T15:28:15;7.25;;;2.45;;
8887;SDS011;4480;52.370;9.748;2023-03-14T15:30:45;6.35;;;2.25;;
8887;SDS011;4480;52.370;9.748;2023-03-14T15:33:12;4.90;;;2.58;;